sensor_id;sensor_type;location;lat;lon;timestamp;temperature;humidity
74420;DHT22;62855;50.718;-2.460;2022-09-20T00:00:02;53.06;84.00
74420;DHT22;62855;50.718;-2.460;2022-09-20T00:02:00;52.88;84.00
74420;DHT22;62855;50.718;-2.460;2022-09-20T00:03:01;52.88;84.00
74420;DHT22;62855;50.718;-2.460;2022-09-20T00:05:00;52.88;84.00
74420;DHT22;62855;50.718;-2.460;2022-09-20T00:06:02;52.88;84.00
74420;DHT22;62855;50.718;-2.460;2022-09-20T00:08:00;52.70;84.00
74420;DHT22;62855;50.718;-2.460;2022-09-20T00:09:01;52.70;84.00
74420;DHT22;62855;50.718;-2.460;2022-09-20T00:11:01;52.70;84.00
74420;DHT22;62855;50.718;-2.460;2022-09-20T00:12:01;52.70;84.00
74420;DHT22;62855;50.718;-2.460;2022-09-20T00:14:02;52.52;84.00
74420;DHT22;62855;50.718;-2.460;2022-09-20T00:15:00;52.52;84.00
74420;DHT22;62855;50.718;-2.460;2022-09-20T00:17:00;52.52;85.00
74420;DHT22;62855;50.718;-2.460;2022-09-20T00:18:00;52.52;85.00
74420;DHT22;62855;50.718;-2.460;2022-09-20T00:20:01;52.52;85.00
74420;DHT22;62855;50.718;-2.460;2022-09-20T00:21:00;52.52;85.00
74420;DHT22;62855;50.718;-2.460;2022-09-20T00:23:01;52.52;85.00
74420;DHT22;62855;50.718;-2.460;2022-09-20T00:24:01;52.52;85.00
74420;DHT22;62855;50.718;-2.460;2022-09-20T00:26:02;52.52;86.00
74420;DHT22;62855;50.718;-2.460;2022-09-20T00:27:01;52.52;86.00
74420;DHT22;62855;50.718;-2.460;2022-09-20T00:29:01;52.52;86.00
74420;DHT22;62855;50.718;-2.460;2022-09-20T00:30:01;52.52;86.00
74420;DHT22;62855;50.718;-2.460;2022-09-20T00:32:00;52.52;86.00
74420;DHT22;62855;50.718;-2.460;2022-09-20T00:33:01;52.52;86.00
74420;DHT22;62855;50.718;-2.460;2022-09-20T00:35:00;52.52;86.00
74420;DHT22;62855;50.718;-2.460;2022-09-20T00:36:30;52.52;87.00
74420;DHT22;62855;50.718;-2.460;2022-09-20T00:38:00;52.52;87.00
74420;DHT22;62855;50.718;-2.460;2022-09-20T00:39:01;52.52;87.00
74420;DHT22;62855;50.718;-2.460;2022-09-20T00:41:00;52.34;87.00
74420;DHT22;62855;50.718;-2.460;2022-09-20T00:42:01;52.34;87.00
74420;DHT22;62855;50.718;-2.460;2022-09-20T00:44:01;52.34;87.00
74420;DHT22;62855;50.718;-2.460;2022-09-20T00:45:04;52.34;87.00
74420;DHT22;62855;50.718;-2.460;2022-09-20T00:47:01;52.34;87.00
74420;DHT22;62855;50.718;-2.460;2022-09-20T00:48:03;52.34;87.00
74420;DHT22;62855;50.718;-2.460;2022-09-20T00:50:06;52.34;87.00
74420;DHT22;62855;50.718;-2.460;2022-09-20T00:51:05;52.34;87.00
74420;DHT22;62855;50.718;-2.460;2022-09-20T00:53:04;52.34;88.00
74420;DHT22;62855;50.718;-2.460;2022-09-20T00:54:02;52.34;88.00
74420;DHT22;62855;50.718;-2.460;2022-09-20T00:56:04;52.34;88.00
74420;DHT22;62855;50.718;-2.460;2022-09-20T00:57:00;52.34;88.00
74420;DHT22;62855;50.718;-2.460;2022-09-20T00:59:05;52.34;88.00
74420;DHT22;62855;50.718;-2.460;2022-09-20T01:00:03;52.34;88.00
74420;DHT22;62855;50.718;-2.460;2022-09-20T01:02:02;52.34;88.00
74420;DHT22;62855;50.718;-2.460;2022-09-20T01:03:03;52.34;88.00
74420;DHT22;62855;50.718;-2.460;2022-09-20T01:05:01;52.34;88.00
74420;DHT22;62855;50.718;-2.460;2022-09-20T01:06:06;52.52;89.00
74420;DHT22;62855;50.718;-2.460;2022-09-20T01:08:01;52.52;89.00
74420;DHT22;62855;50.718;-2.460;2022-09-20T01:09:02;52.52;89.00
74420;DHT22;62855;50.718;-2.460;2022-09-20T01:11:01;52.52;89.00
74420;DHT22;62855;50.718;-2.460;2022-09-20T01:12:04;52.52;89.00
74420;DHT22;62855;50.718;-2.460;2022-09-20T01:14:01;52.52;89.00
74420;DHT22;62855;50.718;-2.460;2022-09-20T01:15:02;52.52;89.00
74420;DHT22;62855;50.718;-2.460;2022-09-20T01:17:03;52.52;89.00
74420;DHT22;62855;50.718;-2.460;2022-09-20T01:18:02;52.52;89.00
74420;DHT22;62855;50.718;-2.460;2022-09-20T01:20:09;52.52;88.00
74420;DHT22;62855;50.718;-2.460;2022-09-20T01:21:02;52.34;88.00
74420;DHT22;62855;50.718;-2.460;2022-09-20T01:23:11;52.34;88.00
74420;DHT22;62855;50.718;-2.460;2022-09-20T01:24:05;52.34;88.00
74420;DHT22;62855;50.718;-2.460;2022-09-20T01:26:27;52.16;88.00
74420;DHT22;62855;50.718;-2.460;2022-09-20T01:27:11;52.16;88.00
74420;DHT22;62855;50.718;-2.460;2022-09-20T01:29:09;52.16;88.00
74420;DHT22;62855;50.718;-2.460;2022-09-20T01:30:04;52.16;88.00
74420;DHT22;62855;50.718;-2.460;2022-09-20T01:32:02;52.16;88.00
74420;DHT22;62855;50.718;-2.460;2022-09-20T01:33:07;52.16;88.00
74420;DHT22;62855;50.718;-2.460;2022-09-20T01:35:01;52.16;88.00
74420;DHT22;62855;50.718;-2.460;2022-09-20T01:36:03;52.16;88.00
74420;DHT22;62855;50.718;-2.460;2022-09-20T01:38:13;52.16;88.00
74420;DHT22;62855;50.718;-2.460;2022-09-20T01:39:07;52.16;88.00
74420;DHT22;62855;50.718;-2.460;2022-09-20T01:41:05;52.16;88.00
74420;DHT22;62855;50.718;-2.460;2022-09-20T01:42:04;52.16;88.00
74420;DHT22;62855;50.718;-2.460;2022-09-20T01:44:05;51.98;89.00
74420;DHT22;62855;50.718;-2.460;2022-09-20T01:45:04;51.98;89.00
74420;DHT22;62855;50.718;-2.460;2022-09-20T01:47:08;51.98;89.00
74420;DHT22;62855;50.718;-2.460;2022-09-20T01:48:07;51.98;89.00
74420;DHT22;62855;50.718;-2.460;2022-09-20T01:50:08;51.98;89.00
74420;DHT22;62855;50.718;-2.460;2022-09-20T01:51:33;51.98;89.00
74420;DHT22;62855;50.718;-2.460;2022-09-20T01:53:15;51.80;89.00
74420;DHT22;62855;50.718;-2.460;2022-09-20T01:54:18;51.80;89.00
74420;DHT22;62855;50.718;-2.460;2022-09-20T01:56:17;51.80;89.00
74420;DHT22;62855;50.718;-2.460;2022-09-20T01:57:34;51.80;89.00
74420;DHT22;62855;50.718;-2.460;2022-09-20T01:59:36;51.80;88.00
74420;DHT22;62855;50.718;-2.460;2022-09-20T02:00:06;51.62;88.00
74420;DHT22;62855;50.718;-2.460;2022-09-20T02:02:06;51.62;88.00
74420;DHT22;62855;50.718;-2.460;2022-09-20T02:03:24;51.62;88.00
74420;DHT22;62855;50.718;-2.460;2022-09-20T02:05:14;51.62;88.00
74420;DHT22;62855;50.718;-2.460;2022-09-20T02:06:12;51.62;88.00
74420;DHT22;62855;50.718;-2.460;2022-09-20T02:08:07;51.62;88.00
74420;DHT22;62855;50.718;-2.460;2022-09-20T02:09:12;51.44;88.00
74420;DHT22;62855;50.718;-2.460;2022-09-20T02:11:05;51.44;88.00
74420;DHT22;62855;50.718;-2.460;2022-09-20T02:14:18;51.44;89.00
74420;DHT22;62855;50.718;-2.460;2022-09-20T02:17:07;51.44;89.00
74420;DHT22;62855;50.718;-2.460;2022-09-20T02:20:06;51.62;89.00
74420;DHT22;62855;50.718;-2.460;2022-09-20T02:23:18;51.62;90.00
74420;DHT22;62855;50.718;-2.460;2022-09-20T02:26:10;51.80;90.00
74420;DHT22;62855;50.718;-2.460;2022-09-20T02:29:08;51.80;90.00
74420;DHT22;62855;50.718;-2.460;2022-09-20T02:32:14;51.80;90.00
74420;DHT22;62855;50.718;-2.460;2022-09-20T02:35:11;51.80;90.00
74420;DHT22;62855;50.718;-2.460;2022-09-20T02:38:10;51.80;90.00
74420;DHT22;62855;50.718;-2.460;2022-09-20T02:41:18;51.80;90.00
74420;DHT22;62855;50.718;-2.460;2022-09-20T02:44:08;51.80;90.00
74420;DHT22;62855;50.718;-2.460;2022-09-20T02:47:08;51.80;90.00
74420;DHT22;62855;50.718;-2.460;2022-09-20T02:50:11;51.80;90.00
74420;DHT22;62855;50.718;-2.460;2022-09-20T02:53:10;51.62;90.00
74420;DHT22;62855;50.718;-2.460;2022-09-20T02:56:06;51.62;90.00
74420;DHT22;62855;50.718;-2.460;2022-09-20T02:59:07;51.62;90.00
74420;DHT22;62855;50.718;-2.460;2022-09-20T03:02:07;51.44;89.00
74420;DHT22;62855;50.718;-2.460;2022-09-20T03:05:08;51.44;89.00
74420;DHT22;62855;50.718;-2.460;2022-09-20T03:08:14;51.26;89.00
74420;DHT22;62855;50.718;-2.460;2022-09-20T03:11:08;51.26;89.00
74420;DHT22;62855;50.718;-2.460;2022-09-20T03:14:09;51.08;89.00
74420;DHT22;62855;50.718;-2.460;2022-09-20T03:17:07;51.08;89.00
74420;DHT22;62855;50.718;-2.460;2022-09-20T03:20:11;50.90;89.00
74420;DHT22;62855;50.718;-2.460;2022-09-20T03:23:09;50.90;89.00
74420;DHT22;62855;50.718;-2.460;2022-09-20T03:26:07;50.90;89.00
74420;DHT22;62855;50.718;-2.460;2022-09-20T03:29:03;50.72;89.00
74420;DHT22;62855;50.718;-2.460;2022-09-20T03:32:12;50.54;89.00
74420;DHT22;62855;50.718;-2.460;2022-09-20T03:35:13;50.54;89.00
74420;DHT22;62855;50.718;-2.460;2022-09-20T03:38:12;50.54;89.00
74420;DHT22;62855;50.718;-2.460;2022-09-20T03:41:17;50.36;89.00
74420;DHT22;62855;50.718;-2.460;2022-09-20T03:44:10;50.36;89.00
74420;DHT22;62855;50.718;-2.460;2022-09-20T03:47:07;50.36;89.00
74420;DHT22;62855;50.718;-2.460;2022-09-20T03:50:21;50.36;90.00
74420;DHT22;62855;50.718;-2.460;2022-09-20T03:53:18;50.36;90.00
74420;DHT22;62855;50.718;-2.460;2022-09-20T03:56:23;50.36;90.00
74420;DHT22;62855;50.718;-2.460;2022-09-20T03:59:10;50.18;90.00
74420;DHT22;62855;50.718;-2.460;2022-09-20T04:02:18;50.18;90.00
74420;DHT22;62855;50.718;-2.460;2022-09-20T04:05:02;50.18;90.00
74420;DHT22;62855;50.718;-2.460;2022-09-20T04:08:07;50.18;90.00
74420;DHT22;62855;50.718;-2.460;2022-09-20T04:11:05;50.18;90.00
74420;DHT22;62855;50.718;-2.460;2022-09-20T04:14:09;50.18;90.00
74420;DHT22;62855;50.718;-2.460;2022-09-20T04:17:07;50.18;90.00
74420;DHT22;62855;50.718;-2.460;2022-09-20T04:20:04;50.18;91.00
74420;DHT22;62855;50.718;-2.460;2022-09-20T04:23:06;50.18;91.00
74420;DHT22;62855;50.718;-2.460;2022-09-20T04:26:02;50.18;91.00
74420;DHT22;62855;50.718;-2.460;2022-09-20T04:29:16;50.18;91.00
74420;DHT22;62855;50.718;-2.460;2022-09-20T04:32:08;50.18;91.00
74420;DHT22;62855;50.718;-2.460;2022-09-20T04:35:10;50.00;91.00
74420;DHT22;62855;50.718;-2.460;2022-09-20T04:38:02;50.00;91.00
74420;DHT22;62855;50.718;-2.460;2022-09-20T04:41:16;50.00;91.00
74420;DHT22;62855;50.718;-2.460;2022-09-20T04:47:16;49.82;91.00
74420;DHT22;62855;50.718;-2.460;2022-09-20T04:50:18;49.82;91.00
74420;DHT22;62855;50.718;-2.460;2022-09-20T04:53:23;49.82;91.00
74420;DHT22;62855;50.718;-2.460;2022-09-20T04:56:09;49.82;91.00
74420;DHT22;62855;50.718;-2.460;2022-09-20T04:59:04;49.82;91.00
74420;DHT22;62855;50.718;-2.460;2022-09-20T05:02:28;49.82;91.00
74420;DHT22;62855;50.718;-2.460;2022-09-20T05:05:34;49.82;91.00
74420;DHT22;62855;50.718;-2.460;2022-09-20T05:11:15;49.82;92.00
74420;DHT22;62855;50.718;-2.460;2022-09-20T05:14:16;49.82;92.00
74420;DHT22;62855;50.718;-2.460;2022-09-20T05:17:14;49.82;92.00
74420;DHT22;62855;50.718;-2.460;2022-09-20T05:20:16;50.00;92.00
74420;DHT22;62855;50.718;-2.460;2022-09-20T05:23:16;50.00;92.00
74420;DHT22;62855;50.718;-2.460;2022-09-20T05:26:11;50.00;92.00
74420;DHT22;62855;50.718;-2.460;2022-09-20T05:29:03;50.00;92.00
74420;DHT22;62855;50.718;-2.460;2022-09-20T05:32:02;50.00;92.00
74420;DHT22;62855;50.718;-2.460;2022-09-20T05:35:05;49.82;92.00
74420;DHT22;62855;50.718;-2.460;2022-09-20T05:38:10;49.82;92.00
74420;DHT22;62855;50.718;-2.460;2022-09-20T05:41:06;49.82;92.00
74420;DHT22;62855;50.718;-2.460;2022-09-20T05:44:06;49.82;92.00
74420;DHT22;62855;50.718;-2.460;2022-09-20T05:47:09;49.82;92.00
74420;DHT22;62855;50.718;-2.460;2022-09-20T05:50:12;49.82;92.00
74420;DHT22;62855;50.718;-2.460;2022-09-20T05:53:11;49.82;92.00
74420;DHT22;62855;50.718;-2.460;2022-09-20T05:56:05;50.00;92.00
74420;DHT22;62855;50.718;-2.460;2022-09-20T05:59:12;50.00;92.00
74420;DHT22;62855;50.718;-2.460;2022-09-20T06:02:22;50.00;92.00
74420;DHT22;62855;50.718;-2.460;2022-09-20T06:05:06;50.18;92.00
74420;DHT22;62855;50.718;-2.460;2022-09-20T06:08:13;50.18;92.00
74420;DHT22;62855;50.718;-2.460;2022-09-20T06:11:18;50.18;92.00
74420;DHT22;62855;50.718;-2.460;2022-09-20T06:14:12;50.18;92.00
74420;DHT22;62855;50.718;-2.460;2022-09-20T06:17:09;50.18;92.00
74420;DHT22;62855;50.718;-2.460;2022-09-20T06:20:12;50.18;92.00
74420;DHT22;62855;50.718;-2.460;2022-09-20T06:23:03;50.18;92.00
74420;DHT22;62855;50.718;-2.460;2022-09-20T06:26:03;50.18;92.00
74420;DHT22;62855;50.718;-2.460;2022-09-20T06:29:03;50.36;92.00
74420;DHT22;62855;50.718;-2.460;2022-09-20T06:32:00;50.36;92.00
74420;DHT22;62855;50.718;-2.460;2022-09-20T06:35:01;50.36;92.00
74420;DHT22;62855;50.718;-2.460;2022-09-20T06:38:12;50.36;91.00
74420;DHT22;62855;50.718;-2.460;2022-09-20T06:41:00;50.36;91.00
74420;DHT22;62855;50.718;-2.460;2022-09-20T06:44:01;50.54;91.00
74420;DHT22;62855;50.718;-2.460;2022-09-20T06:47:00;50.54;91.00
74420;DHT22;62855;50.718;-2.460;2022-09-20T06:50:00;50.72;91.00
74420;DHT22;62855;50.718;-2.460;2022-09-20T06:53:00;50.90;91.00
74420;DHT22;62855;50.718;-2.460;2022-09-20T06:56:00;50.90;90.00
74420;DHT22;62855;50.718;-2.460;2022-09-20T06:59:01;51.08;90.00
74420;DHT22;62855;50.718;-2.460;2022-09-20T07:02:00;51.44;90.00
74420;DHT22;62855;50.718;-2.460;2022-09-20T07:05:00;51.62;90.00
74420;DHT22;62855;50.718;-2.460;2022-09-20T07:08:01;51.98;90.00
74420;DHT22;62855;50.718;-2.460;2022-09-20T07:11:03;52.16;90.00
74420;DHT22;62855;50.718;-2.460;2022-09-20T07:14:00;52.34;90.00
74420;DHT22;62855;50.718;-2.460;2022-09-20T07:17:00;52.52;90.00
74420;DHT22;62855;50.718;-2.460;2022-09-20T07:20:01;52.52;89.00
74420;DHT22;62855;50.718;-2.460;2022-09-20T07:23:01;52.52;88.00
74420;DHT22;62855;50.718;-2.460;2022-09-20T07:26:01;52.70;88.00
74420;DHT22;62855;50.718;-2.460;2022-09-20T07:29:00;52.70;87.00
74420;DHT22;62855;50.718;-2.460;2022-09-20T07:32:01;52.70;87.00
74420;DHT22;62855;50.718;-2.460;2022-09-20T07:35:01;52.88;87.00
74420;DHT22;62855;50.718;-2.460;2022-09-20T07:38:01;53.24;83.00
74420;DHT22;62855;50.718;-2.460;2022-09-20T07:41:01;53.60;83.00
74420;DHT22;62855;50.718;-2.460;2022-09-20T07:44:00;53.96;83.00
74420;DHT22;62855;50.718;-2.460;2022-09-20T07:47:00;54.50;82.00
74420;DHT22;62855;50.718;-2.460;2022-09-20T07:50:01;55.04;82.00
74420;DHT22;62855;50.718;-2.460;2022-09-20T07:53:00;55.58;82.00
74420;DHT22;62855;50.718;-2.460;2022-09-20T07:56:03;55.94;81.00
74420;DHT22;62855;50.718;-2.460;2022-09-20T07:59:00;56.48;81.00
74420;DHT22;62855;50.718;-2.460;2022-09-20T08:02:00;57.20;81.00
74420;DHT22;62855;50.718;-2.460;2022-09-20T08:05:00;57.92;80.00
74420;DHT22;62855;50.718;-2.460;2022-09-20T08:08:01;58.28;80.00
74420;DHT22;62855;50.718;-2.460;2022-09-20T08:11:02;58.46;79.00
74420;DHT22;62855;50.718;-2.460;2022-09-20T08:14:01;58.64;77.00
74420;DHT22;62855;50.718;-2.460;2022-09-20T08:17:01;59.00;77.00
74420;DHT22;62855;50.718;-2.460;2022-09-20T08:20:01;59.54;77.00
74420;DHT22;62855;50.718;-2.460;2022-09-20T08:23:01;59.90;77.00
74420;DHT22;62855;50.718;-2.460;2022-09-20T08:26:01;59.54;75.00
74420;DHT22;62855;50.718;-2.460;2022-09-20T08:29:01;59.72;75.00
74420;DHT22;62855;50.718;-2.460;2022-09-20T08:32:01;60.08;76.00
74420;DHT22;62855;50.718;-2.460;2022-09-20T08:35:01;60.44;76.00
74420;DHT22;62855;50.718;-2.460;2022-09-20T08:38:00;60.80;76.00
74420;DHT22;62855;50.718;-2.460;2022-09-20T08:41:03;60.98;75.00
74420;DHT22;62855;50.718;-2.460;2022-09-20T08:44:03;60.26;74.00
74420;DHT22;62855;50.718;-2.460;2022-09-20T08:47:05;59.72;73.00
74420;DHT22;62855;50.718;-2.460;2022-09-20T08:50:03;60.08;72.00
74420;DHT22;62855;50.718;-2.460;2022-09-20T08:53:01;60.08;71.00
74420;DHT22;62855;50.718;-2.460;2022-09-20T08:56:00;60.26;70.00
74420;DHT22;62855;50.718;-2.460;2022-09-20T08:59:00;60.26;70.00
74420;DHT22;62855;50.718;-2.460;2022-09-20T09:02:01;60.26;69.00
74420;DHT22;62855;50.718;-2.460;2022-09-20T09:05:02;60.26;69.00
74420;DHT22;62855;50.718;-2.460;2022-09-20T09:08:04;60.26;69.00
74420;DHT22;62855;50.718;-2.460;2022-09-20T09:11:02;60.26;68.00
74420;DHT22;62855;50.718;-2.460;2022-09-20T09:14:03;60.26;67.00
74420;DHT22;62855;50.718;-2.460;2022-09-20T09:17:00;60.44;68.00
74420;DHT22;62855;50.718;-2.460;2022-09-20T09:20:14;60.80;67.00
74420;DHT22;62855;50.718;-2.460;2022-09-20T09:23:02;60.98;67.00
74420;DHT22;62855;50.718;-2.460;2022-09-20T09:26:03;61.16;66.00
74420;DHT22;62855;50.718;-2.460;2022-09-20T09:29:15;61.16;65.00
74420;DHT22;62855;50.718;-2.460;2022-09-20T09:32:18;61.16;64.00
74420;DHT22;62855;50.718;-2.460;2022-09-20T09:35:22;61.16;64.00
74420;DHT22;62855;50.718;-2.460;2022-09-20T09:38:01;61.34;66.00
74420;DHT22;62855;50.718;-2.460;2022-09-20T09:41:01;61.70;66.00
74420;DHT22;62855;50.718;-2.460;2022-09-20T09:44:02;61.70;65.00
74420;DHT22;62855;50.718;-2.460;2022-09-20T09:47:00;62.06;65.00
74420;DHT22;62855;50.718;-2.460;2022-09-20T09:50:00;62.06;64.00
74420;DHT22;62855;50.718;-2.460;2022-09-20T09:53:05;61.88;64.00
74420;DHT22;62855;50.718;-2.460;2022-09-20T09:56:11;62.06;65.00
74420;DHT22;62855;50.718;-2.460;2022-09-20T09:59:12;62.24;64.00
74420;DHT22;62855;50.718;-2.460;2022-09-20T10:02:07;62.24;63.00
74420;DHT22;62855;50.718;-2.460;2022-09-20T10:05:04;62.24;64.00
74420;DHT22;62855;50.718;-2.460;2022-09-20T10:08:13;62.42;61.00
74420;DHT22;62855;50.718;-2.460;2022-09-20T10:11:10;62.60;60.00
74420;DHT22;62855;50.718;-2.460;2022-09-20T10:14:11;62.24;62.00
74420;DHT22;62855;50.718;-2.460;2022-09-20T10:17:11;62.24;62.00
74420;DHT22;62855;50.718;-2.460;2022-09-20T10:20:13;62.24;62.00
74420;DHT22;62855;50.718;-2.460;2022-09-20T10:23:08;62.42;59.00
74420;DHT22;62855;50.718;-2.460;2022-09-20T10:26:06;62.60;58.00
74420;DHT22;62855;50.718;-2.460;2022-09-20T10:29:07;62.78;59.00
74420;DHT22;62855;50.718;-2.460;2022-09-20T10:32:09;62.96;58.00
74420;DHT22;62855;50.718;-2.460;2022-09-20T10:35:12;63.32;56.00
74420;DHT22;62855;50.718;-2.460;2022-09-20T10:38:11;63.32;55.00
74420;DHT22;62855;50.718;-2.460;2022-09-20T10:41:08;63.50;54.00
74420;DHT22;62855;50.718;-2.460;2022-09-20T10:44:08;63.68;56.00
74420;DHT22;62855;50.718;-2.460;2022-09-20T10:47:07;64.22;56.00
74420;DHT22;62855;50.718;-2.460;2022-09-20T10:50:10;64.58;54.00
74420;DHT22;62855;50.718;-2.460;2022-09-20T10:53:10;64.76;52.00
74420;DHT22;62855;50.718;-2.460;2022-09-20T10:56:09;64.94;52.00
74420;DHT22;62855;50.718;-2.460;2022-09-20T10:59:15;64.58;50.00
74420;DHT22;62855;50.718;-2.460;2022-09-20T11:02:12;64.58;51.00
74420;DHT22;62855;50.718;-2.460;2022-09-20T11:05:16;64.58;50.00
74420;DHT22;62855;50.718;-2.460;2022-09-20T11:08:05;64.22;50.00
74420;DHT22;62855;50.718;-2.460;2022-09-20T11:11:06;64.22;50.00
74420;DHT22;62855;50.718;-2.460;2022-09-20T11:14:03;64.58;51.00
74420;DHT22;62855;50.718;-2.460;2022-09-20T11:17:05;64.94;50.00
74420;DHT22;62855;50.718;-2.460;2022-09-20T11:20:04;65.12;50.00
74420;DHT22;62855;50.718;-2.460;2022-09-20T11:23:04;65.12;48.00
74420;DHT22;62855;50.718;-2.460;2022-09-20T11:26:07;65.12;48.00
74420;DHT22;62855;50.718;-2.460;2022-09-20T11:29:06;65.12;46.00
74420;DHT22;62855;50.718;-2.460;2022-09-20T11:32:07;64.94;47.00
74420;DHT22;62855;50.718;-2.460;2022-09-20T11:35:03;64.94;48.00
74420;DHT22;62855;50.718;-2.460;2022-09-20T11:38:05;64.76;46.00
74420;DHT22;62855;50.718;-2.460;2022-09-20T11:41:04;64.58;46.00
74420;DHT22;62855;50.718;-2.460;2022-09-20T11:44:04;64.40;48.00
74420;DHT22;62855;50.718;-2.460;2022-09-20T11:47:04;64.76;50.00
74420;DHT22;62855;50.718;-2.460;2022-09-20T11:50:16;64.94;48.00
74420;DHT22;62855;50.718;-2.460;2022-09-20T11:53:09;64.76;46.00
74420;DHT22;62855;50.718;-2.460;2022-09-20T11:56:03;64.58;45.00
74420;DHT22;62855;50.718;-2.460;2022-09-20T11:59:02;64.58;46.00
74420;DHT22;62855;50.718;-2.460;2022-09-20T12:02:03;64.94;46.00
74420;DHT22;62855;50.718;-2.460;2022-09-20T12:05:02;65.12;48.00
74420;DHT22;62855;50.718;-2.460;2022-09-20T12:08:02;65.66;49.00
74420;DHT22;62855;50.718;-2.460;2022-09-20T12:11:02;65.84;47.00
74420;DHT22;62855;50.718;-2.460;2022-09-20T12:14:03;65.84;45.00
74420;DHT22;62855;50.718;-2.460;2022-09-20T12:17:00;65.66;44.00
74420;DHT22;62855;50.718;-2.460;2022-09-20T12:20:00;65.66;45.00
74420;DHT22;62855;50.718;-2.460;2022-09-20T12:26:03;66.20;45.00
74420;DHT22;62855;50.718;-2.460;2022-09-20T12:32:02;67.10;45.00
74420;DHT22;62855;50.718;-2.460;2022-09-20T12:35:00;67.64;46.00
74420;DHT22;62855;50.718;-2.460;2022-09-20T12:38:22;68.18;46.00
74420;DHT22;62855;50.718;-2.460;2022-09-20T12:41:04;68.18;44.00
74420;DHT22;62855;50.718;-2.460;2022-09-20T12:44:05;68.00;42.00
74420;DHT22;62855;50.718;-2.460;2022-09-20T12:47:02;67.82;42.00
74420;DHT22;62855;50.718;-2.460;2022-09-20T12:50:01;67.64;43.00
74420;DHT22;62855;50.718;-2.460;2022-09-20T12:53:01;67.46;43.00
74420;DHT22;62855;50.718;-2.460;2022-09-20T12:56:05;67.46;43.00
74420;DHT22;62855;50.718;-2.460;2022-09-20T12:59:02;67.46;42.00
74420;DHT22;62855;50.718;-2.460;2022-09-20T13:05:00;66.92;42.00
74420;DHT22;62855;50.718;-2.460;2022-09-20T13:08:02;66.74;42.00
74420;DHT22;62855;50.718;-2.460;2022-09-20T13:11:09;66.74;44.00
74420;DHT22;62855;50.718;-2.460;2022-09-20T13:14:02;66.56;42.00
74420;DHT22;62855;50.718;-2.460;2022-09-20T13:17:04;66.74;45.00
74420;DHT22;62855;50.718;-2.460;2022-09-20T13:20:00;66.74;45.00
74420;DHT22;62855;50.718;-2.460;2022-09-20T13:23:02;66.74;46.00
74420;DHT22;62855;50.718;-2.460;2022-09-20T13:26:01;66.92;47.00
74420;DHT22;62855;50.718;-2.460;2022-09-20T13:29:01;66.92;48.00
74420;DHT22;62855;50.718;-2.460;2022-09-20T13:32:14;67.10;48.00
74420;DHT22;62855;50.718;-2.460;2022-09-20T13:35:05;67.28;48.00
74420;DHT22;62855;50.718;-2.460;2022-09-20T13:38:02;67.46;48.00
74420;DHT22;62855;50.718;-2.460;2022-09-20T13:41:03;67.46;47.00
74420;DHT22;62855;50.718;-2.460;2022-09-20T13:44:01;67.46;46.00
74420;DHT22;62855;50.718;-2.460;2022-09-20T13:47:00;66.92;46.00
74420;DHT22;62855;50.718;-2.460;2022-09-20T13:50:01;66.74;47.00
74420;DHT22;62855;50.718;-2.460;2022-09-20T13:53:02;66.56;48.00
74420;DHT22;62855;50.718;-2.460;2022-09-20T13:56:08;66.56;47.00
74420;DHT22;62855;50.718;-2.460;2022-09-20T13:59:03;66.38;47.00
74420;DHT22;62855;50.718;-2.460;2022-09-20T14:02:01;66.38;48.00
74420;DHT22;62855;50.718;-2.460;2022-09-20T14:05:03;66.56;49.00
74420;DHT22;62855;50.718;-2.460;2022-09-20T14:08:01;66.74;49.00
74420;DHT22;62855;50.718;-2.460;2022-09-20T14:11:06;66.74;48.00
74420;DHT22;62855;50.718;-2.460;2022-09-20T14:14:02;66.74;47.00
74420;DHT22;62855;50.718;-2.460;2022-09-20T14:17:04;66.56;48.00
74420;DHT22;62855;50.718;-2.460;2022-09-20T14:20:01;66.56;47.00
74420;DHT22;62855;50.718;-2.460;2022-09-20T14:23:01;66.38;47.00
74420;DHT22;62855;50.718;-2.460;2022-09-20T14:26:05;66.20;48.00
74420;DHT22;62855;50.718;-2.460;2022-09-20T14:32:05;65.84;49.00
74420;DHT22;62855;50.718;-2.460;2022-09-20T14:35:04;66.02;50.00
74420;DHT22;62855;50.718;-2.460;2022-09-20T14:38:06;66.20;49.00
74420;DHT22;62855;50.718;-2.460;2022-09-20T14:41:01;66.20;49.00
74420;DHT22;62855;50.718;-2.460;2022-09-20T14:44:01;66.20;49.00
74420;DHT22;62855;50.718;-2.460;2022-09-20T14:47:12;66.02;49.00
74420;DHT22;62855;50.718;-2.460;2022-09-20T14:50:01;66.02;49.00
74420;DHT22;62855;50.718;-2.460;2022-09-20T14:53:05;66.02;48.00
74420;DHT22;62855;50.718;-2.460;2022-09-20T14:56:08;66.02;48.00
74420;DHT22;62855;50.718;-2.460;2022-09-20T14:59:04;66.02;48.00
74420;DHT22;62855;50.718;-2.460;2022-09-20T15:02:02;66.02;48.00
74420;DHT22;62855;50.718;-2.460;2022-09-20T15:05:01;65.84;48.00
74420;DHT22;62855;50.718;-2.460;2022-09-20T15:08:01;65.66;49.00
74420;DHT22;62855;50.718;-2.460;2022-09-20T15:11:01;65.30;49.00
74420;DHT22;62855;50.718;-2.460;2022-09-20T15:14:01;64.94;49.00
74420;DHT22;62855;50.718;-2.460;2022-09-20T15:17:01;64.40;49.00
74420;DHT22;62855;50.718;-2.460;2022-09-20T15:20:01;64.04;50.00
74420;DHT22;62855;50.718;-2.460;2022-09-20T15:23:00;63.86;50.00
74420;DHT22;62855;50.718;-2.460;2022-09-20T15:26:00;63.86;50.00
74420;DHT22;62855;50.718;-2.460;2022-09-20T15:29:00;63.86;50.00
74420;DHT22;62855;50.718;-2.460;2022-09-20T15:32:00;63.86;50.00
74420;DHT22;62855;50.718;-2.460;2022-09-20T15:35:00;63.86;50.00
74420;DHT22;62855;50.718;-2.460;2022-09-20T15:38:00;64.04;50.00
74420;DHT22;62855;50.718;-2.460;2022-09-20T15:41:01;64.04;51.00
74420;DHT22;62855;50.718;-2.460;2022-09-20T15:44:01;64.04;50.00
74420;DHT22;62855;50.718;-2.460;2022-09-20T15:47:00;64.04;50.00
74420;DHT22;62855;50.718;-2.460;2022-09-20T15:50:01;64.22;51.00
74420;DHT22;62855;50.718;-2.460;2022-09-20T15:53:00;64.22;51.00
74420;DHT22;62855;50.718;-2.460;2022-09-20T15:56:02;64.22;51.00
74420;DHT22;62855;50.718;-2.460;2022-09-20T15:59:02;64.40;51.00
74420;DHT22;62855;50.718;-2.460;2022-09-20T16:02:00;64.22;50.00
74420;DHT22;62855;50.718;-2.460;2022-09-20T16:05:00;64.22;50.00
74420;DHT22;62855;50.718;-2.460;2022-09-20T16:08:00;64.22;50.00
74420;DHT22;62855;50.718;-2.460;2022-09-20T16:11:01;64.04;50.00
74420;DHT22;62855;50.718;-2.460;2022-09-20T16:14:01;63.68;50.00
74420;DHT22;62855;50.718;-2.460;2022-09-20T16:17:00;63.32;51.00
74420;DHT22;62855;50.718;-2.460;2022-09-20T16:20:01;63.32;52.00
74420;DHT22;62855;50.718;-2.460;2022-09-20T16:23:01;63.14;52.00
74420;DHT22;62855;50.718;-2.460;2022-09-20T16:26:00;63.14;53.00
74420;DHT22;62855;50.718;-2.460;2022-09-20T16:29:00;63.32;53.00
74420;DHT22;62855;50.718;-2.460;2022-09-20T16:32:01;63.32;52.00
74420;DHT22;62855;50.718;-2.460;2022-09-20T16:35:00;63.14;52.00
74420;DHT22;62855;50.718;-2.460;2022-09-20T16:38:00;62.96;52.00
74420;DHT22;62855;50.718;-2.460;2022-09-20T16:41:01;62.78;51.00
74420;DHT22;62855;50.718;-2.460;2022-09-20T16:44:01;62.60;51.00